sensor_id;sensor_type;location;lat;lon;timestamp;P1;durP1;ratioP1;P2;durP2;ratioP2
5931;SDS011;2991;49.368;8.528;2022-07-29T00:00:46;2.25;;;2.15;;
5931;SDS011;2991;49.368;8.528;2022-07-29T00:03:12;2.47;;;2.28;;
5931;SDS011;2991;49.368;8.528;2022-07-29T00:05:39;2.50;;;2.30;;
5931;SDS011;2991;49.368;8.528;2022-07-29T00:08:05;2.03;;;1.92;;
5931;SDS011;2991;49.368;8.528;2022-07-29T00:10:31;2.00;;;1.90;;
5931;SDS011;2991;49.368;8.528;2022-07-29T00:12:57;2.53;;;2.33;;
5931;SDS011;2991;49.368;8.528;2022-07-29T00:15:24;2.00;;;1.90;;
5931;SDS011;2991;49.368;8.528;2022-07-29T00:17:50;2.28;;;2.17;;
5931;SDS011;2991;49.368;8.528;2022-07-29T00:20:15;2.22;;;2.13;;
5931;SDS011;2991;49.368;8.528;2022-07-29T00:22:41;3.15;;;2.08;;
5931;SDS011;2991;49.368;8.528;2022-07-29T00:25:06;2.30;;;2.20;;
5931;SDS011;2991;49.368;8.528;2022-07-29T00:27:33;2.50;;;2.30;;
5931;SDS011;2991;49.368;8.528;2022-07-29T00:29:59;2.50;;;2.40;;
5931;SDS011;2991;49.368;8.528;2022-07-29T00:32:25;2.85;;;2.65;;
5931;SDS011;2991;49.368;8.528;2022-07-29T00:34:50;2.65;;;2.50;;
5931;SDS011;2991;49.368;8.528;2022-07-29T00:37:34;2.75;;;2.55;;
5931;SDS011;2991;49.368;8.528;2022-07-29T00:40:00;2.80;;;2.60;;
5931;SDS011;2991;49.368;8.528;2022-07-29T00:42:26;3.22;;;2.95;;
5931;SDS011;2991;49.368;8.528;2022-07-29T00:44:54;3.03;;;2.78;;
5931;SDS011;2991;49.368;8.528;2022-07-29T00:47:19;2.75;;;2.55;;
5931;SDS011;2991;49.368;8.528;2022-07-29T00:49:45;2.75;;;2.55;;
5931;SDS011;2991;49.368;8.528;2022-07-29T00:52:11;3.58;;;2.60;;
5931;SDS011;2991;49.368;8.528;2022-07-29T00:54:37;2.80;;;2.63;;
5931;SDS011;2991;49.368;8.528;2022-07-29T00:57:05;2.53;;;2.42;;
5931;SDS011;2991;49.368;8.528;2022-07-29T00:59:34;2.70;;;2.50;;
5931;SDS011;2991;49.368;8.528;2022-07-29T01:02:00;2.88;;;2.67;;
5931;SDS011;2991;49.368;8.528;2022-07-29T01:04:26;4.07;;;2.78;;
5931;SDS011;2991;49.368;8.528;2022-07-29T01:06:52;2.60;;;2.50;;
5931;SDS011;2991;49.368;8.528;2022-07-29T01:09:19;3.20;;;3.00;;
5931;SDS011;2991;49.368;8.528;2022-07-29T01:11:45;2.70;;;2.50;;
5931;SDS011;2991;49.368;8.528;2022-07-29T01:14:13;3.53;;;3.05;;
5931;SDS011;2991;49.368;8.528;2022-07-29T01:17:27;3.00;;;2.70;;
5931;SDS011;2991;49.368;8.528;2022-07-29T01:25:03;3.40;;;3.10;;
5931;SDS011;2991;49.368;8.528;2022-07-29T01:30:44;3.25;;;2.95;;
5931;SDS011;2991;49.368;8.528;2022-07-29T01:33:13;2.90;;;2.60;;
5931;SDS011;2991;49.368;8.528;2022-07-29T01:36:05;3.35;;;3.05;;
5931;SDS011;2991;49.368;8.528;2022-07-29T01:38:35;3.28;;;3.08;;
5931;SDS011;2991;49.368;8.528;2022-07-29T01:43:44;3.63;;;3.33;;
5931;SDS011;2991;49.368;8.528;2022-07-29T01:46:17;3.10;;;2.80;;
5931;SDS011;2991;49.368;8.528;2022-07-29T01:48:48;3.17;;;2.97;;
5931;SDS011;2991;49.368;8.528;2022-07-29T01:51:20;3.40;;;3.15;;
5931;SDS011;2991;49.368;8.528;2022-07-29T01:57:11;2.80;;;2.70;;
5931;SDS011;2991;49.368;8.528;2022-07-29T01:59:39;3.58;;;3.30;;
5931;SDS011;2991;49.368;8.528;2022-07-29T02:02:07;3.25;;;2.90;;
5931;SDS011;2991;49.368;8.528;2022-07-29T02:04:35;2.30;;;2.20;;
5931;SDS011;2991;49.368;8.528;2022-07-29T02:07:03;3.35;;;2.88;;
5931;SDS011;2991;49.368;8.528;2022-07-29T02:09:31;2.70;;;2.60;;
5931;SDS011;2991;49.368;8.528;2022-07-29T02:12:00;3.22;;;2.92;;
5931;SDS011;2991;49.368;8.528;2022-07-29T02:14:28;2.83;;;2.72;;
5931;SDS011;2991;49.368;8.528;2022-07-29T02:16:58;2.95;;;2.75;;
5931;SDS011;2991;49.368;8.528;2022-07-29T02:19:26;3.10;;;2.90;;
5931;SDS011;2991;49.368;8.528;2022-07-29T02:21:54;3.35;;;3.05;;
5931;SDS011;2991;49.368;8.528;2022-07-29T02:24:24;2.92;;;2.72;;
5931;SDS011;2991;49.368;8.528;2022-07-29T02:26:51;3.10;;;2.90;;
5931;SDS011;2991;49.368;8.528;2022-07-29T02:29:23;2.65;;;2.30;;
5931;SDS011;2991;49.368;8.528;2022-07-29T02:31:53;3.10;;;2.85;;
5931;SDS011;2991;49.368;8.528;2022-07-29T02:34:22;3.25;;;3.05;;
5931;SDS011;2991;49.368;8.528;2022-07-29T02:36:49;3.00;;;2.63;;
5931;SDS011;2991;49.368;8.528;2022-07-29T02:39:16;2.50;;;2.40;;
5931;SDS011;2991;49.368;8.528;2022-07-29T02:41:57;3.80;;;3.55;;
5931;SDS011;2991;49.368;8.528;2022-07-29T02:44:28;2.78;;;2.58;;
5931;SDS011;2991;49.368;8.528;2022-07-29T02:46:59;3.03;;;2.83;;
5931;SDS011;2991;49.368;8.528;2022-07-29T02:50:09;2.75;;;2.65;;
5931;SDS011;2991;49.368;8.528;2022-07-29T02:52:41;3.03;;;2.80;;
5931;SDS011;2991;49.368;8.528;2022-07-29T02:58:25;2.83;;;2.63;;
5931;SDS011;2991;49.368;8.528;2022-07-29T03:00:55;3.08;;;2.92;;
5931;SDS011;2991;49.368;8.528;2022-07-29T03:03:24;2.95;;;2.80;;
5931;SDS011;2991;49.368;8.528;2022-07-29T03:05:57;3.25;;;3.05;;
5931;SDS011;2991;49.368;8.528;2022-07-29T03:08:26;5.97;;;2.80;;
5931;SDS011;2991;49.368;8.528;2022-07-29T03:10:52;3.40;;;3.08;;
5931;SDS011;2991;49.368;8.528;2022-07-29T03:13:19;3.03;;;2.83;;
5931;SDS011;2991;49.368;8.528;2022-07-29T03:15:45;2.80;;;2.60;;
5931;SDS011;2991;49.368;8.528;2022-07-29T03:18:12;2.50;;;2.40;;
5931;SDS011;2991;49.368;8.528;2022-07-29T03:20:39;2.65;;;2.45;;
5931;SDS011;2991;49.368;8.528;2022-07-29T03:23:05;3.03;;;2.80;;
5931;SDS011;2991;49.368;8.528;2022-07-29T03:25:35;2.80;;;2.55;;
5931;SDS011;2991;49.368;8.528;2022-07-29T03:28:00;2.80;;;2.70;;
5931;SDS011;2991;49.368;8.528;2022-07-29T03:30:26;3.13;;;2.92;;
5931;SDS011;2991;49.368;8.528;2022-07-29T03:32:52;2.72;;;2.63;;
5931;SDS011;2991;49.368;8.528;2022-07-29T03:35:18;2.50;;;2.40;;
5931;SDS011;2991;49.368;8.528;2022-07-29T03:37:44;3.10;;;2.90;;
5931;SDS011;2991;49.368;8.528;2022-07-29T03:40:11;6.60;;;3.03;;
5931;SDS011;2991;49.368;8.528;2022-07-29T03:42:42;3.58;;;3.28;;
5931;SDS011;2991;49.368;8.528;2022-07-29T03:45:18;2.83;;;2.70;;
5931;SDS011;2991;49.368;8.528;2022-07-29T03:47:48;2.50;;;2.30;;
5931;SDS011;2991;49.368;8.528;2022-07-29T03:50:17;2.85;;;2.65;;
5931;SDS011;2991;49.368;8.528;2022-07-29T03:52:45;2.67;;;2.50;;
5931;SDS011;2991;49.368;8.528;2022-07-29T03:55:11;2.75;;;2.55;;
5931;SDS011;2991;49.368;8.528;2022-07-29T03:57:37;3.20;;;2.90;;
5931;SDS011;2991;49.368;8.528;2022-07-29T04:00:04;2.67;;;2.58;;
5931;SDS011;2991;49.368;8.528;2022-07-29T04:02:31;3.33;;;3.08;;
5931;SDS011;2991;49.368;8.528;2022-07-29T04:04:58;3.28;;;2.90;;
5931;SDS011;2991;49.368;8.528;2022-07-29T04:07:24;3.35;;;3.15;;
5931;SDS011;2991;49.368;8.528;2022-07-29T04:09:50;2.92;;;2.78;;
5931;SDS011;2991;49.368;8.528;2022-07-29T04:12:15;3.22;;;2.92;;
5931;SDS011;2991;49.368;8.528;2022-07-29T04:14:41;3.05;;;2.70;;
5931;SDS011;2991;49.368;8.528;2022-07-29T04:17:07;2.95;;;2.80;;
5931;SDS011;2991;49.368;8.528;2022-07-29T04:19:32;2.85;;;2.65;;
5931;SDS011;2991;49.368;8.528;2022-07-29T04:21:58;3.28;;;2.97;;
5931;SDS011;2991;49.368;8.528;2022-07-29T04:24:25;3.08;;;2.88;;
5931;SDS011;2991;49.368;8.528;2022-07-29T04:26:51;3.30;;;3.08;;
5931;SDS011;2991;49.368;8.528;2022-07-29T04:29:17;3.13;;;2.80;;
5931;SDS011;2991;49.368;8.528;2022-07-29T04:31:43;5.45;;;2.97;;
5931;SDS011;2991;49.368;8.528;2022-07-29T04:34:09;3.13;;;2.80;;
5931;SDS011;2991;49.368;8.528;2022-07-29T04:36:35;2.83;;;2.72;;
5931;SDS011;2991;49.368;8.528;2022-07-29T04:39:01;3.55;;;3.35;;
5931;SDS011;2991;49.368;8.528;2022-07-29T04:41:27;3.13;;;2.92;;
5931;SDS011;2991;49.368;8.528;2022-07-29T04:43:53;3.08;;;2.88;;
5931;SDS011;2991;49.368;8.528;2022-07-29T04:46:19;3.25;;;2.70;;
5931;SDS011;2991;49.368;8.528;2022-07-29T04:48:45;3.53;;;3.28;;
5931;SDS011;2991;49.368;8.528;2022-07-29T04:51:11;3.70;;;2.58;;
5931;SDS011;2991;49.368;8.528;2022-07-29T04:53:37;5.03;;;3.00;;
5931;SDS011;2991;49.368;8.528;2022-07-29T04:56:03;2.78;;;2.58;;
5931;SDS011;2991;49.368;8.528;2022-07-29T04:58:28;3.42;;;3.13;;
5931;SDS011;2991;49.368;8.528;2022-07-29T05:00:54;3.13;;;2.92;;
5931;SDS011;2991;49.368;8.528;2022-07-29T05:03:20;3.33;;;2.95;;
5931;SDS011;2991;49.368;8.528;2022-07-29T05:05:48;3.03;;;2.83;;
5931;SDS011;2991;49.368;8.528;2022-07-29T05:08:14;2.70;;;2.60;;
5931;SDS011;2991;49.368;8.528;2022-07-29T05:10:39;3.97;;;2.65;;
5931;SDS011;2991;49.368;8.528;2022-07-29T05:13:05;3.03;;;2.83;;
5931;SDS011;2991;49.368;8.528;2022-07-29T05:15:32;4.45;;;2.65;;
5931;SDS011;2991;49.368;8.528;2022-07-29T05:18:01;3.20;;;3.00;;
5931;SDS011;2991;49.368;8.528;2022-07-29T05:20:28;2.83;;;2.63;;
5931;SDS011;2991;49.368;8.528;2022-07-29T05:22:58;2.97;;;2.70;;
5931;SDS011;2991;49.368;8.528;2022-07-29T05:25:25;2.63;;;2.53;;
5931;SDS011;2991;49.368;8.528;2022-07-29T05:27:51;3.15;;;2.92;;
5931;SDS011;2991;49.368;8.528;2022-07-29T05:30:17;4.10;;;3.10;;
5931;SDS011;2991;49.368;8.528;2022-07-29T05:32:43;3.20;;;3.00;;
5931;SDS011;2991;49.368;8.528;2022-07-29T05:35:09;3.78;;;2.83;;
5931;SDS011;2991;49.368;8.528;2022-07-29T05:37:35;3.42;;;2.78;;
5931;SDS011;2991;49.368;8.528;2022-07-29T05:40:01;3.72;;;2.90;;
5931;SDS011;2991;49.368;8.528;2022-07-29T05:44:55;4.38;;;3.17;;
5931;SDS011;2991;49.368;8.528;2022-07-29T05:47:23;2.63;;;2.43;;
5931;SDS011;2991;49.368;8.528;2022-07-29T05:49:49;3.35;;;3.05;;
5931;SDS011;2991;49.368;8.528;2022-07-29T05:52:17;3.40;;;3.15;;
5931;SDS011;2991;49.368;8.528;2022-07-29T05:54:52;3.22;;;2.45;;
5931;SDS011;2991;49.368;8.528;2022-07-29T05:57:19;4.82;;;2.97;;
5931;SDS011;2991;49.368;8.528;2022-07-29T05:59:46;2.50;;;2.35;;
5931;SDS011;2991;49.368;8.528;2022-07-29T06:02:13;3.55;;;3.35;;
5931;SDS011;2991;49.368;8.528;2022-07-29T06:04:39;2.70;;;2.50;;
5931;SDS011;2991;49.368;8.528;2022-07-29T06:07:04;3.00;;;2.80;;
5931;SDS011;2991;49.368;8.528;2022-07-29T06:09:31;2.80;;;2.70;;
5931;SDS011;2991;49.368;8.528;2022-07-29T06:11:56;2.60;;;2.50;;
5931;SDS011;2991;49.368;8.528;2022-07-29T06:14:23;2.95;;;2.75;;
5931;SDS011;2991;49.368;8.528;2022-07-29T06:16:48;2.80;;;2.60;;
5931;SDS011;2991;49.368;8.528;2022-07-29T06:19:14;2.92;;;2.72;;
5931;SDS011;2991;49.368;8.528;2022-07-29T06:21:43;3.35;;;2.58;;
5931;SDS011;2991;49.368;8.528;2022-07-29T06:24:10;6.47;;;2.55;;
5931;SDS011;2991;49.368;8.528;2022-07-29T06:26:37;3.55;;;3.25;;
5931;SDS011;2991;49.368;8.528;2022-07-29T06:29:03;2.90;;;2.75;;
5931;SDS011;2991;49.368;8.528;2022-07-29T06:31:29;2.97;;;2.88;;
5931;SDS011;2991;49.368;8.528;2022-07-29T06:33:55;2.63;;;2.45;;
5931;SDS011;2991;49.368;8.528;2022-07-29T06:36:21;4.63;;;2.85;;
5931;SDS011;2991;49.368;8.528;2022-07-29T06:38:46;2.80;;;2.60;;
5931;SDS011;2991;49.368;8.528;2022-07-29T06:41:12;2.97;;;2.78;;
5931;SDS011;2991;49.368;8.528;2022-07-29T06:43:41;5.38;;;2.78;;
5931;SDS011;2991;49.368;8.528;2022-07-29T06:46:08;2.75;;;2.55;;
5931;SDS011;2991;49.368;8.528;2022-07-29T06:48:36;3.05;;;2.85;;
5931;SDS011;2991;49.368;8.528;2022-07-29T06:51:04;5.85;;;2.35;;
5931;SDS011;2991;49.368;8.528;2022-07-29T06:53:30;2.87;;;2.67;;
5931;SDS011;2991;49.368;8.528;2022-07-29T06:55:56;3.23;;;2.93;;
5931;SDS011;2991;49.368;8.528;2022-07-29T06:58:24;2.95;;;2.67;;
5931;SDS011;2991;49.368;8.528;2022-07-29T07:00:53;2.95;;;2.75;;
5931;SDS011;2991;49.368;8.528;2022-07-29T07:03:18;3.15;;;2.90;;
5931;SDS011;2991;49.368;8.528;2022-07-29T07:05:48;3.35;;;3.08;;
5931;SDS011;2991;49.368;8.528;2022-07-29T07:08:14;3.35;;;3.00;;
5931;SDS011;2991;49.368;8.528;2022-07-29T07:10:41;3.72;;;3.13;;
5931;SDS011;2991;49.368;8.528;2022-07-29T07:13:07;3.42;;;2.72;;
5931;SDS011;2991;49.368;8.528;2022-07-29T07:15:34;4.10;;;2.90;;
5931;SDS011;2991;49.368;8.528;2022-07-29T07:18:01;2.55;;;2.35;;
5931;SDS011;2991;49.368;8.528;2022-07-29T07:20:27;4.38;;;2.97;;
5931;SDS011;2991;49.368;8.528;2022-07-29T07:22:52;3.17;;;2.88;;
5931;SDS011;2991;49.368;8.528;2022-07-29T07:25:18;2.63;;;2.50;;
5931;SDS011;2991;49.368;8.528;2022-07-29T07:27:44;2.60;;;2.50;;
5931;SDS011;2991;49.368;8.528;2022-07-29T07:30:10;2.85;;;2.63;;
5931;SDS011;2991;49.368;8.528;2022-07-29T07:32:36;3.40;;;2.65;;
5931;SDS011;2991;49.368;8.528;2022-07-29T07:35:02;2.60;;;2.50;;
5931;SDS011;2991;49.368;8.528;2022-07-29T07:37:29;2.95;;;2.78;;
5931;SDS011;2991;49.368;8.528;2022-07-29T07:39:55;3.00;;;2.80;;
5931;SDS011;2991;49.368;8.528;2022-07-29T07:42:20;3.67;;;2.60;;
5931;SDS011;2991;49.368;8.528;2022-07-29T07:44:46;3.05;;;2.85;;
5931;SDS011;2991;49.368;8.528;2022-07-29T07:47:13;4.13;;;2.47;;
5931;SDS011;2991;49.368;8.528;2022-07-29T07:49:39;3.25;;;3.03;;
5931;SDS011;2991;49.368;8.528;2022-07-29T07:52:05;3.13;;;2.90;;
5931;SDS011;2991;49.368;8.528;2022-07-29T07:54:30;3.88;;;3.22;;
5931;SDS011;2991;49.368;8.528;2022-07-29T07:56:56;3.17;;;2.97;;
5931;SDS011;2991;49.368;8.528;2022-07-29T07:59:22;2.80;;;2.60;;
5931;SDS011;2991;49.368;8.528;2022-07-29T08:01:47;4.15;;;3.50;;
5931;SDS011;2991;49.368;8.528;2022-07-29T08:04:14;3.33;;;3.03;;
5931;SDS011;2991;49.368;8.528;2022-07-29T08:06:39;3.40;;;3.20;;
5931;SDS011;2991;49.368;8.528;2022-07-29T08:09:05;2.67;;;2.58;;
5931;SDS011;2991;49.368;8.528;2022-07-29T08:11:31;4.15;;;2.75;;
5931;SDS011;2991;49.368;8.528;2022-07-29T08:13:56;2.90;;;2.80;;
5931;SDS011;2991;49.368;8.528;2022-07-29T08:16:22;3.00;;;2.80;;
5931;SDS011;2991;49.368;8.528;2022-07-29T08:18:49;3.55;;;2.75;;
5931;SDS011;2991;49.368;8.528;2022-07-29T08:21:16;4.30;;;2.63;;
5931;SDS011;2991;49.368;8.528;2022-07-29T08:23:43;2.83;;;2.63;;
5931;SDS011;2991;49.368;8.528;2022-07-29T08:26:17;2.95;;;2.75;;
5931;SDS011;2991;49.368;8.528;2022-07-29T08:28:44;3.00;;;2.80;;
5931;SDS011;2991;49.368;8.528;2022-07-29T08:31:19;2.58;;;2.38;;
5931;SDS011;2991;49.368;8.528;2022-07-29T08:33:48;2.53;;;2.42;;
5931;SDS011;2991;49.368;8.528;2022-07-29T08:36:24;3.35;;;3.15;;
5931;SDS011;2991;49.368;8.528;2022-07-29T08:38:53;3.22;;;2.92;;
5931;SDS011;2991;49.368;8.528;2022-07-29T08:41:19;3.10;;;2.90;;
5931;SDS011;2991;49.368;8.528;2022-07-29T08:43:46;3.58;;;3.30;;
5931;SDS011;2991;49.368;8.528;2022-07-29T08:46:12;3.03;;;2.83;;
5931;SDS011;2991;49.368;8.528;2022-07-29T08:48:39;3.55;;;3.17;;
5931;SDS011;2991;49.368;8.528;2022-07-29T08:51:06;3.00;;;2.75;;
5931;SDS011;2991;49.368;8.528;2022-07-29T08:53:33;6.03;;;2.70;;
5931;SDS011;2991;49.368;8.528;2022-07-29T08:56:03;5.88;;;3.22;;
5931;SDS011;2991;49.368;8.528;2022-07-29T08:58:31;3.53;;;3.25;;
5931;SDS011;2991;49.368;8.528;2022-07-29T09:00:58;2.60;;;2.50;;
5931;SDS011;2991;49.368;8.528;2022-07-29T09:03:29;3.08;;;2.88;;
5931;SDS011;2991;49.368;8.528;2022-07-29T09:05:56;2.88;;;2.70;;
5931;SDS011;2991;49.368;8.528;2022-07-29T09:08:23;3.13;;;2.92;;
5931;SDS011;2991;49.368;8.528;2022-07-29T09:10:49;3.88;;;3.15;;
5931;SDS011;2991;49.368;8.528;2022-07-29T09:13:16;2.97;;;2.78;;
5931;SDS011;2991;49.368;8.528;2022-07-29T09:15:41;3.05;;;2.72;;
5931;SDS011;2991;49.368;8.528;2022-07-29T09:18:07;2.85;;;2.70;;
5931;SDS011;2991;49.368;8.528;2022-07-29T09:20:32;3.47;;;2.70;;
5931;SDS011;2991;49.368;8.528;2022-07-29T09:23:16;2.63;;;2.53;;
5931;SDS011;2991;49.368;8.528;2022-07-29T09:25:42;2.80;;;2.60;;
5931;SDS011;2991;49.368;8.528;2022-07-29T09:28:08;3.40;;;3.10;;
5931;SDS011;2991;49.368;8.528;2022-07-29T09:30:50;2.80;;;2.60;;
5931;SDS011;2991;49.368;8.528;2022-07-29T09:33:23;3.20;;;2.90;;
5931;SDS011;2991;49.368;8.528;2022-07-29T09:35:59;2.75;;;2.65;;
5931;SDS011;2991;49.368;8.528;2022-07-29T09:38:29;2.70;;;2.60;;
5931;SDS011;2991;49.368;8.528;2022-07-29T09:40:56;2.97;;;2.78;;
5931;SDS011;2991;49.368;8.528;2022-07-29T09:43:23;2.95;;;2.75;;
5931;SDS011;2991;49.368;8.528;2022-07-29T09:45:49;2.92;;;2.72;;
5931;SDS011;2991;49.368;8.528;2022-07-29T09:48:15;3.10;;;2.90;;
5931;SDS011;2991;49.368;8.528;2022-07-29T09:50:43;2.88;;;2.67;;
5931;SDS011;2991;49.368;8.528;2022-07-29T09:53:10;3.28;;;3.13;;
5931;SDS011;2991;49.368;8.528;2022-07-29T09:55:51;3.30;;;3.10;;
5931;SDS011;2991;49.368;8.528;2022-07-29T09:58:18;2.50;;;2.40;;
5931;SDS011;2991;49.368;8.528;2022-07-29T10:00:45;2.60;;;2.50;;
5931;SDS011;2991;49.368;8.528;2022-07-29T10:03:12;2.80;;;2.60;;
5931;SDS011;2991;49.368;8.528;2022-07-29T10:05:39;2.47;;;2.38;;
5931;SDS011;2991;49.368;8.528;2022-07-29T10:08:06;3.40;;;3.10;;
5931;SDS011;2991;49.368;8.528;2022-07-29T10:10:35;2.58;;;2.47;;
5931;SDS011;2991;49.368;8.528;2022-07-29T10:13:13;2.70;;;2.60;;
5931;SDS011;2991;49.368;8.528;2022-07-29T10:15:40;2.90;;;2.70;;
5931;SDS011;2991;49.368;8.528;2022-07-29T10:18:08;2.50;;;2.40;;
5931;SDS011;2991;49.368;8.528;2022-07-29T10:20:36;2.88;;;2.67;;
5931;SDS011;2991;49.368;8.528;2022-07-29T10:23:02;2.42;;;2.33;;
5931;SDS011;2991;49.368;8.528;2022-07-29T10:25:29;3.30;;;3.00;;
5931;SDS011;2991;49.368;8.528;2022-07-29T10:27:55;2.47;;;2.38;;
5931;SDS011;2991;49.368;8.528;2022-07-29T10:30:22;3.30;;;3.00;;
5931;SDS011;2991;49.368;8.528;2022-07-29T10:44:18;3.22;;;2.80;;
5931;SDS011;2991;49.368;8.528;2022-07-29T10:46:49;2.92;;;2.72;;
5931;SDS011;2991;49.368;8.528;2022-07-29T10:49:16;2.60;;;2.50;;
5931;SDS011;2991;49.368;8.528;2022-07-29T10:52:05;2.63;;;2.53;;
5931;SDS011;2991;49.368;8.528;2022-07-29T10:57:13;2.90;;;2.70;;
5931;SDS011;2991;49.368;8.528;2022-07-29T11:05:15;5.35;;;3.00;;
5931;SDS011;2991;49.368;8.528;2022-07-29T11:10:37;3.08;;;2.88;;
5931;SDS011;2991;49.368;8.528;2022-07-29T11:13:03;2.78;;;2.53;;
5931;SDS011;2991;49.368;8.528;2022-07-29T11:15:28;2.85;;;2.75;;
5931;SDS011;2991;49.368;8.528;2022-07-29T11:18:14;2.80;;;2.65;;
5931;SDS011;2991;49.368;8.528;2022-07-29T11:20:46;2.85;;;2.75;;
5931;SDS011;2991;49.368;8.528;2022-07-29T11:28:36;2.45;;;2.35;;
5931;SDS011;2991;49.368;8.528;2022-07-29T11:31:13;2.78;;;2.67;;
5931;SDS011;2991;49.368;8.528;2022-07-29T11:33:41;2.63;;;2.53;;
5931;SDS011;2991;49.368;8.528;2022-07-29T11:36:07;2.88;;;2.67;;
5931;SDS011;2991;49.368;8.528;2022-07-29T11:38:37;8.50;;;3.00;;
5931;SDS011;2991;49.368;8.528;2022-07-29T11:49:19;6.78;;;3.47;;
5931;SDS011;2991;49.368;8.528;2022-07-29T11:51:56;8.48;;;4.00;;
5931;SDS011;2991;49.368;8.528;2022-07-29T11:54:30;3.00;;;2.80;;
5931;SDS011;2991;49.368;8.528;2022-07-29T11:56:58;4.63;;;3.80;;
5931;SDS011;2991;49.368;8.528;2022-07-29T11:59:24;6.10;;;3.70;;
5931;SDS011;2991;49.368;8.528;2022-07-29T12:01:54;8.02;;;3.35;;
5931;SDS011;2991;49.368;8.528;2022-07-29T12:04:20;6.10;;;3.92;;
5931;SDS011;2991;49.368;8.528;2022-07-29T12:06:51;4.15;;;3.85;;
5931;SDS011;2991;49.368;8.528;2022-07-29T12:09:19;4.13;;;3.20;;
5931;SDS011;2991;49.368;8.528;2022-07-29T12:11:46;4.97;;;3.78;;
5931;SDS011;2991;49.368;8.528;2022-07-29T12:14:25;3.90;;;3.45;;
5931;SDS011;2991;49.368;8.528;2022-07-29T12:16:55;3.83;;;3.53;;
5931;SDS011;2991;49.368;8.528;2022-07-29T12:19:21;5.40;;;3.53;;
5931;SDS011;2991;49.368;8.528;2022-07-29T12:21:48;3.47;;;3.22;;
5931;SDS011;2991;49.368;8.528;2022-07-29T12:24:18;6.20;;;3.85;;
5931;SDS011;2991;49.368;8.528;2022-07-29T12:26:51;3.95;;;3.60;;
5931;SDS011;2991;49.368;8.528;2022-07-29T12:29:18;5.03;;;3.90;;
5931;SDS011;2991;49.368;8.528;2022-07-29T12:31:44;3.80;;;3.50;;
5931;SDS011;2991;49.368;8.528;2022-07-29T12:34:12;5.63;;;4.03;;
5931;SDS011;2991;49.368;8.528;2022-07-29T12:36:40;5.50;;;3.65;;
5931;SDS011;2991;49.368;8.528;2022-07-29T12:39:07;5.80;;;4.45;;
5931;SDS011;2991;49.368;8.528;2022-07-29T12:41:37;6.03;;;4.05;;
5931;SDS011;2991;49.368;8.528;2022-07-29T12:44:03;14.57;;;4.72;;
5931;SDS011;2991;49.368;8.528;2022-07-29T12:46:29;4.85;;;3.30;;
5931;SDS011;2991;49.368;8.528;2022-07-29T12:48:55;4.60;;;3.90;;
5931;SDS011;2991;49.368;8.528;2022-07-29T12:51:34;11.35;;;3.95;;
5931;SDS011;2991;49.368;8.528;2022-07-29T12:56:35;9.20;;;3.65;;
5931;SDS011;2991;49.368;8.528;2022-07-29T12:59:14;8.63;;;3.55;;
5931;SDS011;2991;49.368;8.528;2022-07-29T13:01:41;5.30;;;3.67;;
5931;SDS011;2991;49.368;8.528;2022-07-29T13:04:06;5.13;;;3.70;;
5931;SDS011;2991;49.368;8.528;2022-07-29T13:06:45;8.70;;;3.53;;
5931;SDS011;2991;49.368;8.528;2022-07-29T13:09:19;3.60;;;3.30;;
5931;SDS011;2991;49.368;8.528;2022-07-29T13:12:09;4.80;;;3.75;;
5931;SDS011;2991;49.368;8.528;2022-07-29T13:14:37;4.13;;;3.33;;
5931;SDS011;2991;49.368;8.528;2022-07-29T13:17:11;4.60;;;4.20;;
5931;SDS011;2991;49.368;8.528;2022-07-29T13:19:42;7.80;;;4.10;;
5931;SDS011;2991;49.368;8.528;2022-07-29T13:22:12;4.97;;;3.60;;
5931;SDS011;2991;49.368;8.528;2022-07-29T13:27:17;3.83;;;3.53;;
5931;SDS011;2991;49.368;8.528;2022-07-29T13:29:43;3.95;;;3.53;;
5931;SDS011;2991;49.368;8.528;2022-07-29T13:32:09;4.90;;;3.63;;
5931;SDS011;2991;49.368;8.528;2022-07-29T13:34:34;3.90;;;3.40;;
5931;SDS011;2991;49.368;8.528;2022-07-29T13:37:00;4.05;;;3.75;;
5931;SDS011;2991;49.368;8.528;2022-07-29T13:39:25;4.03;;;3.72;;
5931;SDS011;2991;49.368;8.528;2022-07-29T13:41:51;5.07;;;3.30;;
5931;SDS011;2991;49.368;8.528;2022-07-29T13:44:17;7.45;;;3.58;;
5931;SDS011;2991;49.368;8.528;2022-07-29T13:46:42;6.30;;;3.55;;
5931;SDS011;2991;49.368;8.528;2022-07-29T13:49:08;7.53;;;3.55;;
5931;SDS011;2991;49.368;8.528;2022-07-29T13:51:33;4.40;;;3.95;;
5931;SDS011;2991;49.368;8.528;2022-07-29T13:53:59;7.82;;;3.60;;
5931;SDS011;2991;49.368;8.528;2022-07-29T13:56:25;3.55;;;3.35;;
5931;SDS011;2991;49.368;8.528;2022-07-29T13:58:51;4.22;;;3.85;;
5931;SDS011;2991;49.368;8.528;2022-07-29T14:01:16;3.97;;;3.67;;
5931;SDS011;2991;49.368;8.528;2022-07-29T14:03:42;10.57;;;3.40;;
5931;SDS011;2991;49.368;8.528;2022-07-29T14:06:08;6.05;;;3.75;;
5931;SDS011;2991;49.368;8.528;2022-07-29T14:08:33;5.82;;;3.92;;
5931;SDS011;2991;49.368;8.528;2022-07-29T14:10:59;3.95;;;3.03;;
5931;SDS011;2991;49.368;8.528;2022-07-29T14:13:24;3.75;;;3.55;;
5931;SDS011;2991;49.368;8.528;2022-07-29T14:15:50;5.95;;;3.58;;
5931;SDS011;2991;49.368;8.528;2022-07-29T14:18:15;4.88;;;3.58;;
5931;SDS011;2991;49.368;8.528;2022-07-29T14:20:41;5.50;;;3.47;;
5931;SDS011;2991;49.368;8.528;2022-07-29T14:23:07;2.88;;;2.60;;
5931;SDS011;2991;49.368;8.528;2022-07-29T14:25:32;2.88;;;2.72;;
5931;SDS011;2991;49.368;8.528;2022-07-29T14:27:58;3.65;;;3.35;;
5931;SDS011;2991;49.368;8.528;2022-07-29T14:30:23;5.97;;;3.80;;
5931;SDS011;2991;49.368;8.528;2022-07-29T14:32:49;3.47;;;3.28;;
5931;SDS011;2991;49.368;8.528;2022-07-29T14:35:14;3.20;;;2.90;;
5931;SDS011;2991;49.368;8.528;2022-07-29T14:37:40;4.35;;;3.13;;
5931;SDS011;2991;49.368;8.528;2022-07-29T14:40:06;3.50;;;2.78;;
5931;SDS011;2991;49.368;8.528;2022-07-29T14:42:33;3.15;;;2.95;;
5931;SDS011;2991;49.368;8.528;2022-07-29T14:44:59;3.97;;;3.58;;
5931;SDS011;2991;49.368;8.528;2022-07-29T14:47:24;6.35;;;2.70;;
5931;SDS011;2991;49.368;8.528;2022-07-29T14:49:50;5.75;;;2.67;;
5931;SDS011;2991;49.368;8.528;2022-07-29T14:52:15;4.90;;;3.47;;
5931;SDS011;2991;49.368;8.528;2022-07-29T14:54:44;2.92;;;2.72;;
5931;SDS011;2991;49.368;8.528;2022-07-29T14:57:12;9.30;;;3.10;;
5931;SDS011;2991;49.368;8.528;2022-07-29T14:59:40;5.47;;;3.05;;
5931;SDS011;2991;49.368;8.528;2022-07-29T15:02:07;5.80;;;3.25;;
5931;SDS011;2991;49.368;8.528;2022-07-29T15:04:32;3.33;;;2.95;;
5931;SDS011;2991;49.368;8.528;2022-07-29T15:06:58;2.92;;;2.72;;
5931;SDS011;2991;49.368;8.528;2022-07-29T15:09:27;3.15;;;2.95;;
5931;SDS011;2991;49.368;8.528;2022-07-29T15:11:53;4.75;;;2.85;;
5931;SDS011;2991;49.368;8.528;2022-07-29T15:14:33;3.65;;;3.00;;
5931;SDS011;2991;49.368;8.528;2022-07-29T15:16:59;3.05;;;2.75;;
5931;SDS011;2991;49.368;8.528;2022-07-29T15:19:24;2.90;;;2.70;;
5931;SDS011;2991;49.368;8.528;2022-07-29T15:21:52;3.28;;;3.08;;
5931;SDS011;2991;49.368;8.528;2022-07-29T15:24:18;3.80;;;3.03;;
5931;SDS011;2991;49.368;8.528;2022-07-29T15:26:44;3.17;;;2.70;;
5931;SDS011;2991;49.368;8.528;2022-07-29T15:29:11;3.15;;;2.95;;
5931;SDS011;2991;49.368;8.528;2022-07-29T15:31:37;2.45;;;2.30;;
5931;SDS011;2991;49.368;8.528;2022-07-29T15:34:03;6.30;;;2.97;;
5931;SDS011;2991;49.368;8.528;2022-07-29T15:36:29;6.22;;;2.33;;
5931;SDS011;2991;49.368;8.528;2022-07-29T15:38:55;3.85;;;2.38;;
5931;SDS011;2991;49.368;8.528;2022-07-29T15:41:21;4.18;;;2.60;;
5931;SDS011;2991;49.368;8.528;2022-07-29T15:43:47;3.67;;;2.67;;
5931;SDS011;2991;49.368;8.528;2022-07-29T15:46:13;4.72;;;2.38;;
5931;SDS011;2991;49.368;8.528;2022-07-29T15:48:58;2.75;;;2.10;;
5931;SDS011;2991;49.368;8.528;2022-07-29T15:51:31;2.28;;;2.17;;
5931;SDS011;2991;49.368;8.528;2022-07-29T15:54:24;2.85;;;2.33;;
5931;SDS011;2991;49.368;8.528;2022-07-29T15:56:54;2.72;;;1.80;;
5931;SDS011;2991;49.368;8.528;2022-07-29T15:59:35;4.65;;;2.50;;
5931;SDS011;2991;49.368;8.528;2022-07-29T16:02:02;2.97;;;2.28;;
5931;SDS011;2991;49.368;8.528;2022-07-29T16:04:29;2.58;;;2.17;;
5931;SDS011;2991;49.368;8.528;2022-07-29T16:06:56;2.35;;;1.60;;
5931;SDS011;2991;49.368;8.528;2022-07-29T16:09:27;3.80;;;2.47;;
5931;SDS011;2991;49.368;8.528;2022-07-29T16:11:59;2.97;;;2.35;;
5931;SDS011;2991;49.368;8.528;2022-07-29T16:14:37;3.90;;;1.70;;
5931;SDS011;2991;49.368;8.528;2022-07-29T16:17:36;8.02;;;2.47;;
5931;SDS011;2991;49.368;8.528;2022-07-29T16:20:06;2.47;;;2.30;;
5931;SDS011;2991;49.368;8.528;2022-07-29T16:22:35;2.65;;;1.83;;